createdAt,value
2024-02-15T00:08:35.619Z,12.60
2024-02-15T00:18:39.163Z,12.60
2024-02-15T00:28:42.710Z,12.50
2024-02-15T00:38:46.196Z,12.50
2024-02-15T00:48:48.384Z,12.50
2024-02-15T00:58:51.867Z,12.60
2024-02-15T01:08:53.878Z,12.70
2024-02-15T01:18:57.379Z,12.70
2024-02-15T01:28:59.476Z,12.70
2024-02-15T01:39:02.890Z,12.70
2024-02-15T01:49:05.330Z,12.80
2024-02-15T01:59:08.812Z,12.70
2024-02-15T02:09:12.261Z,12.70
2024-02-15T02:19:15.707Z,12.70
2024-02-15T02:29:19.060Z,12.80
2024-02-15T02:39:21.089Z,12.80
2024-02-15T02:49:24.700Z,12.70
2024-02-15T02:59:26.965Z,12.70
2024-02-15T03:09:30.394Z,12.70
2024-02-15T03:19:32.431Z,12.70
2024-02-15T03:29:35.916Z,12.60
2024-02-15T03:39:37.912Z,12.70
2024-02-15T03:49:41.483Z,12.70
2024-02-15T03:59:43.670Z,12.60
2024-02-15T04:09:47.213Z,12.60
2024-02-15T04:19:49.782Z,12.70
2024-02-15T04:29:53.170Z,12.70
2024-02-15T04:39:55.177Z,12.70
2024-02-15T04:49:58.606Z,12.70
2024-02-15T05:00:00.651Z,12.70
2024-02-15T05:10:04.382Z,12.80
2024-02-15T05:20:08.101Z,12.90
2024-02-15T05:30:13.561Z,12.90
2024-02-15T05:40:15.713Z,13.00
2024-02-15T05:50:19.189Z,13.00
2024-02-15T06:00:23.743Z,13.00
2024-02-15T06:10:27.775Z,13.00
2024-02-15T06:20:29.912Z,12.90
2024-02-15T06:30:33.332Z,12.80
2024-02-15T06:40:35.386Z,12.70
2024-02-15T06:50:38.961Z,12.60
2024-02-15T07:00:40.980Z,12.50
2024-02-15T07:10:44.368Z,12.30
2024-02-15T07:20:49.930Z,12.20
2024-02-15T07:30:54.793Z,12.20
2024-02-15T07:40:56.766Z,12.20
2024-02-15T07:51:00.260Z,12.30
2024-02-15T08:01:02.385Z,12.30
2024-02-15T08:11:06.028Z,12.50
2024-02-15T08:21:08.088Z,12.50
2024-02-15T08:31:11.753Z,12.70
2024-02-15T08:41:13.980Z,12.80
2024-02-15T08:51:17.451Z,12.90
2024-02-15T09:01:19.787Z,13.00
2024-02-15T09:11:23.365Z,13.00
2024-02-15T09:21:25.424Z,13.20
2024-02-15T09:31:28.829Z,13.90
2024-02-15T09:41:31.339Z,14.20
2024-02-15T09:51:34.914Z,14.40
2024-02-15T10:01:39.380Z,16.30
2024-02-15T10:11:55.280Z,15.50
2024-02-15T10:22:07.345Z,15.70
2024-02-15T10:32:10.732Z,15.40
2024-02-15T10:42:14.048Z,15.00
2024-02-15T10:52:18.973Z,15.20
2024-02-15T11:02:31.457Z,15.10
2024-02-15T11:12:35.574Z,15.00
2024-02-15T11:22:37.996Z,15.00
2024-02-15T11:32:42.752Z,15.00
2024-02-15T11:42:45.371Z,15.30
2024-02-15T11:52:49.640Z,15.30
2024-02-15T12:02:52.471Z,15.50
2024-02-15T12:12:56.306Z,15.80
2024-02-15T12:22:58.499Z,16.10
2024-02-15T12:33:13.224Z,16.50
2024-02-15T12:43:16.239Z,16.90
2024-02-15T12:53:23.801Z,16.90
2024-02-15T13:03:25.868Z,17.10
2024-02-15T13:13:29.201Z,16.90
2024-02-15T13:23:31.169Z,16.90
2024-02-15T13:33:34.809Z,17.10
2024-02-15T13:43:37.076Z,17.10
2024-02-15T13:53:40.470Z,16.90
2024-02-15T14:03:42.488Z,16.90
2024-02-15T14:13:45.892Z,16.80
2024-02-15T14:23:47.999Z,17.00
2024-02-15T14:33:51.496Z,16.80
2024-02-15T14:43:53.565Z,16.90
2024-02-15T14:53:56.952Z,17.00
2024-02-15T15:04:01.796Z,16.90
2024-02-15T15:14:08.195Z,17.20
2024-02-15T15:24:12.859Z,17.30
2024-02-15T15:34:19.576Z,17.30
2024-02-15T15:44:24.688Z,16.70
2024-02-15T15:54:30.587Z,16.10
2024-02-15T16:04:32.836Z,15.90
2024-02-15T16:14:38.463Z,15.80
2024-02-15T16:24:43.585Z,15.70
2024-02-15T16:34:47.423Z,15.40
2024-02-15T16:44:49.431Z,15.30
2024-02-15T16:54:52.832Z,15.10
2024-02-15T17:04:54.858Z,14.80
2024-02-15T17:14:58.198Z,14.70
2024-02-15T17:25:00.192Z,14.60
2024-02-15T17:35:04.794Z,14.40
2024-02-15T17:45:08.376Z,14.20
2024-02-15T17:55:12.032Z,14.00
2024-02-15T18:05:14.371Z,13.80
2024-02-15T18:15:18.000Z,13.70
2024-02-15T18:25:20.073Z,13.50
2024-02-15T18:35:23.941Z,13.40
2024-02-15T18:45:25.994Z,13.30
2024-02-15T18:55:30.670Z,13.30
2024-02-15T19:06:49.616Z,13.30
2024-02-15T19:16:53.251Z,13.30
2024-02-15T19:26:55.367Z,13.20
2024-02-15T19:37:07.712Z,13.20
2024-02-15T19:47:16.812Z,13.10
2024-02-15T19:57:20.168Z,13.10
2024-02-15T20:07:22.272Z,13.20
2024-02-15T20:17:25.647Z,13.20
2024-02-15T20:27:27.696Z,13.10
2024-02-15T20:37:31.033Z,13.10
2024-02-15T20:47:33.179Z,13.10
2024-02-15T20:57:37.930Z,13.20
2024-02-15T21:07:40.843Z,13.20
2024-02-15T21:17:44.921Z,13.10
2024-02-15T21:27:47.074Z,13.20
2024-02-15T21:37:50.521Z,13.20
2024-02-15T21:47:52.565Z,13.30
2024-02-15T21:57:55.957Z,13.30
2024-02-15T22:07:57.905Z,13.30
2024-02-15T22:18:01.474Z,13.30
2024-02-15T22:28:03.840Z,13.30
2024-02-15T22:38:07.237Z,13.20
2024-02-15T22:48:09.495Z,13.20
2024-02-15T22:58:13.289Z,13.10
2024-02-15T23:08:15.310Z,13.10
2024-02-15T23:18:18.770Z,13.10
2024-02-15T23:28:20.823Z,13.10
2024-02-15T23:38:24.150Z,13.00
2024-02-15T23:48:26.290Z,12.80
2024-02-15T23:58:29.702Z,12.70
